Time;durP1;ratioP1;P1;durP2;ratioP2;P2;SDS_P1;SDS_P2;PMS_P1;PMS_P2;Temp;Humidity;BMP_temperature;BMP_pressure;BME280_temperature;BME280_humidity;BME280_pressure;Samples;Min_cycle;Max_cycle;Signal;HPM_P1;HPM_P2
2023/06/18 00:02:18;;;;;;;;;3.67;3.67;;;;;20.10;87.30;100407.75;146621;615;47020;-67
2023/06/18 00:05:22;;;;;;;;;5.67;4.00;;;;;20.10;87.83;100404.25;146620;621;46015;-67
2023/06/18 00:08:32;;;;;;;;;;;;;;;;;;;;;
2023/06/18 00:11:38;;;;;;;;;5.00;4.00;;;;;20.11;86.29;100406.00;146620;688;46012;-66
2023/06/18 00:14:33;;;;;;;;;4.00;4.00;;;;;20.12;87.43;100402.47;146620;581;46037;-66
2023/06/18 00:17:48;;;;;;;;;8.67;6.33;;;;;17.70;86.58;99996.53;146617;606;47012;-65
2023/06/18 00:20:54;;;;;;;;;5.67;5.00;;;;;20.10;88.15;100418.28;146618;669;47021;-66
2023/06/18 00:23:52;;;;;;;;;5.00;4.67;;;;;20.08;88.08;100417.38;146619;620;46030;-66
2023/06/18 00:27:04;;;;;;;;;7.00;5.33;;;;;17.32;87.11;99949.81;146621;615;47010;-65
2023/06/18 00:30:01;;;;;;;;;5.00;5.00;;;;;20.04;88.28;100411.22;146620;575;46012;-65
2023/06/18 00:32:59;;;;;;;;;6.00;6.00;;;;;20.04;88.16;100415.59;146624;624;46010;-66
2023/06/18 00:35:57;;;;;;;;;7.00;5.67;;;;;20.02;88.64;100412.06;146617;646;47012;-65
2023/06/18 00:38:51;;;;;;;;;9.67;5.33;;;;;19.99;88.39;100419.94;146621;612;47014;-65
2023/06/18 00:41:47;;;;;;;;;4.67;4.33;;;;;20.00;87.18;100416.41;146611;595;48012;-66
2023/06/18 00:44:41;;;;;;;;;4.33;4.33;;;;;20.00;86.37;100422.59;146621;588;47010;-66
2023/06/18 00:47:41;;;;;;;;;5.33;5.00;;;;;20.03;86.15;100419.97;146618;616;47012;-66
2023/06/18 00:50:40;;;;;;;;;6.00;5.00;;;;;20.06;85.40;100420.00;146620;609;46021;-66
2023/06/18 00:53:44;;;;;;;;;7.00;5.67;;;;;20.09;86.04;100416.50;146616;586;46012;-65
2023/06/18 00:56:59;;;;;;;;;5.33;5.33;;;;;20.10;85.32;100425.28;146623;625;47010;-66
2023/06/18 01:00:11;;;;;;;;;2.33;2.33;;;;;20.12;86.36;100426.16;146613;575;47915;-67
2023/06/18 01:03:21;;;;;;;;;6.00;6.00;;;;;20.10;84.40;100420.91;146621;629;46010;-67
2023/06/18 01:06:24;;;;;;;;;5.00;4.00;;;;;20.11;84.44;100425.28;146619;570;46016;-67
2023/06/18 01:09:31;;;;;;;;;5.00;4.00;;;;;20.12;83.93;100423.53;146618;580;47010;-67
2023/06/18 01:12:28;;;;;;;;;8.00;6.00;;;;;20.15;84.52;100431.44;146617;581;46042;-67
2023/06/18 01:15:32;;;;;;;;;6.33;5.00;;;;;20.15;83.24;100428.81;146623;578;46020;-66
2023/06/18 01:19:08;;;;;;;;;4.00;4.00;;;;;17.48;80.76;99974.47;146613;572;48012;-68
2023/06/18 01:22:28;;;;;;;;;6.00;4.33;;;;;20.17;82.71;100440.25;146621;586;47010;-66
2023/06/18 01:25:37;;;;;;;;;7.00;6.33;;;;;20.16;82.40;100439.38;146617;568;46014;-68
2023/06/18 01:28:40;;;;;;;;;6.00;5.67;;;;;20.13;85.26;100447.25;146619;612;47020;-66
2023/06/18 01:31:39;;;;;;;;;5.67;4.67;;;;;20.06;85.31;100451.59;146619;570;47012;-66
2023/06/18 01:34:38;;;;;;;;;7.00;6.00;;;;;20.03;84.64;100450.66;146623;669;47010;-66
2023/06/18 01:38:19;;;;;;;;;;;;;;;;;;;;;
2023/06/18 01:41:32;;;;;;;;;7.67;6.33;;;;;19.92;87.86;100453.22;146623;635;46021;-65
2023/06/18 01:44:34;;;;;;;;;6.00;5.33;;;;;19.79;89.34;100444.31;146617;591;46016;-66
2023/06/18 01:47:54;;;;;;;;;4.00;3.00;;;;;19.68;90.67;100452.97;146620;610;46014;-66
2023/06/18 01:51:05;;;;;;;;;7.67;6.67;;;;;19.51;90.00;100448.41;146620;597;46012;-67
2023/06/18 01:54:17;;;;;;;;;7.75;5.50;;;;;19.50;90.60;100464.16;146619;607;46020;-66
2023/06/18 01:57:23;;;;;;;;;7.00;6.00;;;;;19.44;91.09;100459.72;146618;598;46033;-66
2023/06/18 02:00:29;;;;;;;;;6.67;6.33;;;;;16.86;90.76;100025.19;146624;649;46010;-67
2023/06/18 02:03:33;;;;;;;;;7.00;6.00;;;;;19.32;91.65;100465.72;146617;599;46017;-67
2023/06/18 02:06:25;;;;;;;;;7.00;5.67;;;;;19.26;91.96;100465.66;146623;609;46029;-68
2023/06/18 02:09:25;;;;;;;;;5.00;5.00;;;;;19.20;91.33;100469.97;146612;632;47016;-67
2023/06/18 02:12:30;;;;;;;;;4.67;4.67;;;;;19.17;91.82;100477.81;146623;630;46020;-68
2023/06/18 02:15:35;;;;;;;;;;;;;;;;;;;;;
2023/06/18 02:18:38;;;;;;;;;4.67;4.67;;;;;19.18;89.44;100488.31;146620;588;46014;-66
2023/06/18 02:21:41;;;;;;;;;3.33;3.33;;;;;19.22;88.35;100483.97;146619;579;46024;-66
2023/06/18 02:24:34;;;;;;;;;4.00;4.00;;;;;19.23;88.38;100476.12;146621;564;46020;-66
2023/06/18 02:27:34;;;;;;;;;4.00;3.33;;;;;19.23;89.22;100484.03;146616;568;46016;-66
2023/06/18 02:30:33;;;;;;;;;6.00;5.67;;;;;19.22;89.83;100486.59;146618;700;47020;-66
2023/06/18 02:33:28;;;;;;;;;4.00;4.00;;;;;19.18;90.09;100490.06;146618;592;47013;-65
2023/06/18 02:36:37;;;;;;;;;5.33;4.33;;;;;19.11;90.75;100491.75;146622;566;47014;-65
2023/06/18 02:39:32;;;;;;;;;6.00;4.00;;;;;19.04;90.82;100495.16;146620;617;46017;-65
2023/06/18 02:42:37;;;;;;;;;5.00;5.00;;;;;18.99;91.33;100496.84;146622;597;46010;-67
2023/06/18 02:45:42;;;;;;;;;6.00;6.00;;;;;18.92;92.44;100491.50;146617;629;46016;-66
2023/06/18 02:49:00;;;;;;;;;6.00;6.00;;;;;18.84;93.09;100493.12;146623;588;46010;-67
2023/06/18 02:51:55;;;;;;;;;7.00;7.00;;;;;18.74;93.65;100486.00;146614;654;46016;-66
2023/06/18 02:54:47;;;;;;;;;7.33;7.00;;;;;18.68;93.73;100491.13;146623;567;46011;-67
2023/06/18 02:57:41;;;;;;;;;7.67;7.67;;;;;18.63;93.84;100498.06;146619;636;46016;-66
2023/06/18 03:00:52;;;;;;;;;6.00;6.00;;;;;18.59;93.89;100496.25;146619;593;47032;-65
2023/06/18 03:04:04;;;;;;;;;10.33;8.00;;;;;15.92;94.21;100054.09;146617;595;46014;-65
2023/06/18 03:07:01;;;;;;;;;8.67;8.33;;;;;18.43;94.91;100501.25;146620;626;47022;-65
2023/06/18 03:09:56;;;;;;;;;10.50;8.50;;;;;18.42;95.23;100511.75;146618;613;47012;-65
2023/06/18 03:12:50;;;;;;;;;9.67;8.00;;;;;18.40;95.39;100516.06;146619;616;46020;-65
2023/06/18 03:15:45;;;;;;;;;8.33;8.33;;;;;18.36;96.25;100520.41;146618;578;46016;-65
2023/06/18 03:18:43;;;;;;;;;7.67;7.67;;;;;18.34;96.38;100531.72;146623;711;46010;-65
2023/06/18 03:21:40;;;;;;;;;9.67;8.67;;;;;18.31;96.92;100529.94;146618;579;47012;-65
2023/06/18 03:24:51;;;;;;;;;10.67;9.33;;;;;18.24;97.08;100531.56;146624;595;46026;-65
2023/06/18 03:27:56;;;;;;;;;11.50;8.75;;;;;18.22;96.19;100537.66;146615;596;46016;-66
2023/06/18 03:30:59;;;;;;;;;9.75;8.25;;;;;18.19;98.10;100542.84;146621;626;47015;-66
2023/06/18 03:33:54;;;;;;;;;11.67;10.33;;;;;18.17;96.47;100555.06;146618;596;46017;-65
2023/06/18 03:36:52;;;;;;;;;8.00;7.33;;;;;18.15;96.43;100556.78;146620;627;46010;-66
2023/06/18 03:39:50;;;;;;;;;10.25;9.50;;;;;18.13;95.73;100555.84;146618;572;46029;-65
2023/06/18 03:43:00;;;;;;;;;10.50;9.25;;;;;18.12;95.21;100565.47;146617;675;46010;-66
2023/06/18 03:45:55;;;;;;;;;7.67;7.67;;;;;18.10;95.35;100568.91;146618;569;46016;-65
2023/06/18 03:48:55;;;;;;;;;8.67;8.33;;;;;18.09;95.45;100573.28;146623;586;46010;-65
2023/06/18 03:51:48;;;;;;;;;10.00;7.67;;;;;18.09;95.45;100561.91;146618;563;47012;-67
2023/06/18 03:54:41;;;;;;;;;7.00;6.00;;;;;18.09;94.97;100578.53;146623;564;46010;-66
2023/06/18 03:57:34;;;;;;;;;6.50;6.00;;;;;18.10;94.89;100568.91;146617;577;46033;-67
2023/06/18 04:00:26;;;;;;;;;7.67;6.67;;;;;18.10;95.38;100568.91;146623;631;46023;-66
2023/06/18 04:03:20;;;;;;;;;6.00;6.00;;;;;18.09;96.02;100565.41;146619;588;46017;-65
2023/06/18 04:06:12;;;;;;;;;7.00;7.00;;;;;18.08;95.60;100561.03;146623;641;47010;-66
2023/06/18 04:09:04;;;;;;;;;5.00;5.00;;;;;18.09;95.86;100561.91;146619;576;46013;-66
2023/06/18 04:11:56;;;;;;;;;7.33;5.67;;;;;18.06;96.09;100553.97;146620;569;46020;-68
2023/06/18 04:14:51;;;;;;;;;7.00;6.00;;;;;18.09;97.04;100559.28;146620;645;46016;-68
2023/06/18 04:17:45;;;;;;;;;5.00;4.33;;;;;18.11;96.30;100557.59;146624;593;46011;-67
2023/06/18 04:20:40;;;;;;;;;5.67;5.00;;;;;18.11;96.51;100541.84;146620;613;46016;-66
2023/06/18 04:23:33;;;;;;;;;6.67;6.67;;;;;18.13;96.51;100548.87;146622;569;46020;-65
2023/06/18 04:26:39;;;;;;;;;6.33;6.33;;;;;18.11;96.75;100540.09;146611;611;49014;-67
2023/06/18 04:29:41;;;;;;;;;6.00;6.00;;;;;18.11;96.57;100539.22;146622;585;46010;-67
2023/06/18 04:32:36;;;;;;;;;5.67;5.33;;;;;18.10;96.45;100540.06;146616;601;47012;-65
2023/06/18 04:35:52;;;;;;;;;8.33;7.00;;;;;15.30;96.02;100069.38;146615;555;46020;-66
2023/06/18 04:38:46;;;;;;;;;7.00;5.00;;;;;18.06;97.40;100548.75;146621;673;46012;-66
2023/06/18 04:41:59;;;;;;;;;5.00;5.00;;;;;18.02;96.45;100553.06;146624;601;45020;-66
2023/06/18 04:44:56;;;;;;;;;6.33;6.33;;;;;18.04;97.02;100548.72;146618;582;47012;-67
2023/06/18 04:47:51;;;;;;;;;6.33;5.33;;;;;18.08;97.46;100558.41;146623;569;46020;-66
2023/06/18 04:51:05;;;;;;;;;3.67;3.67;;;;;15.25;97.09;100056.19;146618;569;46016;-65
2023/06/18 04:54:00;;;;;;;;;3.00;3.00;;;;;18.08;98.03;100555.78;146622;653;46010;-65
2023/06/18 04:56:57;;;;;;;;;5.33;4.33;;;;;18.07;97.72;100555.75;146619;667;46016;-66
2023/06/18 04:59:55;;;;;;;;;5.00;4.67;;;;;18.13;95.68;100563.72;146624;590;47010;-65
2023/06/18 05:02:47;;;;;;;;;5.00;5.00;;;;;18.15;96.72;100559.41;146616;616;47014;-64
2023/06/18 05:06:11;;;;;;;;;3.67;3.00;;;;;18.19;94.42;100555.97;146619;577;47020;-64
2023/06/18 05:09:12;;;;;;;;;5.00;4.00;;;;;18.30;92.96;100559.66;146617;603;46016;-63
2023/06/18 05:12:16;;;;;;;;;5.67;5.67;;;;;18.39;93.25;100561.56;146625;594;46010;-64
2023/06/18 05:15:15;;;;;;;;;4.25;4.00;;;;;18.48;92.12;100561.72;146618;649;47013;-64
2023/06/18 05:18:07;;;;;;;;;5.50;5.00;;;;;18.55;91.35;100563.59;146623;686;46010;-64
2023/06/18 05:21:05;;;;;;;;;6.00;5.00;;;;;18.63;90.70;100574.22;146621;624;46012;-64
2023/06/18 05:24:16;;;;;;;;;3.67;3.67;;;;;18.71;90.98;100564.72;146617;570;46021;-64
2023/06/18 05:27:12;;;;;;;;;5.67;5.67;;;;;18.78;93.17;100574.47;146618;572;46016;-63
2023/06/18 05:30:19;;;;;;;;;7.00;5.67;;;;;15.88;93.36;100067.94;146620;621;46021;-64
2023/06/18 05:33:14;;;;;;;;;4.00;4.00;;;;;18.77;94.04;100563.97;146617;610;47014;-63
2023/06/18 05:36:16;;;;;;;;;8.67;6.33;;;;;18.77;94.11;100583.22;146624;682;46010;-65
2023/06/18 05:39:10;;;;;;;;;7.25;5.25;;;;;18.82;91.71;100593.81;146614;639;46037;-65
2023/06/18 05:42:02;;;;;;;;;3.00;3.00;;;;;18.84;91.34;100606.09;146622;595;46020;-65
2023/06/18 05:45:04;;;;;;;;;6.00;6.00;;;;;18.91;89.44;100602.72;146615;575;46017;-67
2023/06/18 05:48:11;;;;;;;;;5.67;5.33;;;;;19.03;89.29;100609.00;146621;641;47010;-65
2023/06/18 05:51:12;;;;;;;;;6.33;6.33;;;;;19.12;88.70;100612.66;146617;573;46016;-68
2023/06/18 05:54:09;;;;;;;;;5.33;4.33;;;;;19.24;87.31;100604.06;146623;584;46010;-67
2023/06/18 05:57:05;;;;;;;;;7.00;7.00;;;;;19.39;87.44;100609.53;146620;572;47012;-68
2023/06/18 05:59:57;;;;;;;;;5.67;5.00;;;;;19.45;86.22;100608.75;146622;580;46011;-67
2023/06/18 06:02:51;;;;;;;;;5.33;5.00;;;;;19.42;87.77;100613.97;146619;613;47014;-66
2023/06/18 06:05:47;;;;;;;;;7.67;5.67;;;;;19.37;86.84;100615.63;146621;575;46030;-66
2023/06/18 06:08:46;;;;;;;;;6.33;4.67;;;;;19.33;87.36;100625.22;146616;618;46038;-68
2023/06/18 06:11:55;;;;;;;;;;;;;;;;;;;;;
2023/06/18 06:15:04;;;;;;;;;;;;;;;;;;;;;
2023/06/18 06:17:59;;;;;;;;;4.00;4.00;;;;;19.41;89.64;100633.22;146618;660;47022;-70
2023/06/18 06:21:00;;;;;;;;;3.00;3.00;;;;;19.44;90.00;100641.16;146615;665;47015;-68
2023/06/18 06:24:12;;;;;;;;;4.33;3.33;;;;;19.47;89.34;100641.22;146623;643;46020;-70
2023/06/18 06:27:34;;;;;;;;;3.00;3.00;;;;;16.51;88.00;100124.94;146620;569;46016;-69
2023/06/18 06:30:41;;;;;;;;;2.00;2.00;;;;;19.62;89.45;100654.56;146621;633;47010;-69
2023/06/18 06:33:37;;;;;;;;;5.00;3.00;;;;;19.62;89.97;100653.66;146616;637;46016;-69
2023/06/18 06:36:34;;;;;;;;;3.00;3.00;;;;;19.66;89.13;100651.97;146619;595;46021;-67
2023/06/18 06:39:31;;;;;;;;;3.00;2.00;;;;;19.70;88.87;100657.31;146617;564;46016;-69
2023/06/18 06:42:38;;;;;;;;;3.00;2.33;;;;;19.69;87.15;100655.56;146622;634;47020;-67
2023/06/18 06:45:48;;;;;;;;;3.00;2.00;;;;;19.70;86.92;100657.31;146617;575;47014;-66
2023/06/18 06:48:58;;;;;;;;;2.00;2.00;;;;;19.75;86.75;100660.91;146622;575;46020;-67
2023/06/18 06:52:06;;;;;;;;;2.33;2.33;;;;;19.82;85.25;100660.09;146617;579;46017;-67
2023/06/18 06:55:19;;;;;;;;;4.00;4.00;;;;;19.96;86.40;100667.28;146622;581;47010;-66
2023/06/18 06:58:21;;;;;;;;;1.67;1.00;;;;;20.16;86.78;100670.16;146618;569;46012;-67
2023/06/18 07:01:23;;;;;;;;;7.00;5.00;;;;;20.26;85.13;100669.38;146618;590;47021;-67
2023/06/18 07:04:34;;;;;;;;;;;;;;;;;;;;;
2023/06/18 07:07:26;;;;;;;;;7.00;7.00;;;;;20.40;83.67;100666.88;146622;673;46020;-65
2023/06/18 07:10:29;;;;;;;;;9.00;9.00;;;;;20.46;82.66;100659.91;146618;597;46016;-66
2023/06/18 07:13:39;;;;;;;;;8.33;7.67;;;;;20.50;82.01;100660.87;146619;564;46020;-66
2023/06/18 07:16:36;;;;;;;;;8.75;6.00;;;;;20.52;82.60;100654.75;146616;644;46042;-66
2023/06/18 07:19:52;;;;;;;;;8.00;8.00;;;;;20.58;82.41;100653.06;146623;588;46020;-65
2023/06/18 07:23:15;;;;;;;;;10.50;10.50;;;;;17.76;81.49;100165.31;146618;627;46014;-66
2023/06/18 07:26:28;;;;;;;;;8.67;8.67;;;;;18.13;82.91;100228.78;146619;571;46014;-65
2023/06/18 07:29:25;;;;;;;;;7.00;7.00;;;;;20.69;83.85;100657.56;146619;661;46018;-67
2023/06/18 07:32:29;;;;;;;;;9.00;8.67;;;;;20.93;83.85;100646.34;146623;622;46037;-66
2023/06/18 07:35:36;;;;;;;;;9.67;9.67;;;;;21.27;83.45;100641.28;146618;688;46017;-66
2023/06/18 07:38:46;;;;;;;;;8.33;7.67;;;;;21.63;81.88;100637.13;146619;566;46020;-67
2023/06/18 07:41:39;;;;;;;;;7.00;7.00;;;;;22.05;81.90;100635.50;146618;572;46012;-65
2023/06/18 07:44:36;;;;;;;;;6.33;5.33;;;;;22.57;78.30;100640.94;146619;624;46011;-65
2023/06/18 07:47:28;;;;;;;;;6.00;6.00;;;;;23.03;72.22;100628.62;146618;595;47012;-65
2023/06/18 07:50:27;;;;;;;;;8.00;6.00;;;;;23.34;71.16;100625.91;146618;570;46010;-65
2023/06/18 07:53:33;;;;;;;;;5.00;5.00;;;;;23.68;71.39;100641.69;146617;590;46016;-65
2023/06/18 07:56:38;;;;;;;;;4.00;4.00;;;;;23.83;69.62;100643.41;146619;616;47020;-65
2023/06/18 07:59:40;;;;;;;;;9.67;8.67;;;;;23.83;69.08;100646.97;146620;598;46013;-65
2023/06/18 08:02:45;;;;;;;;;9.67;8.00;;;;;23.83;69.57;100646.06;146621;574;47010;-66
2023/06/18 08:05:47;;;;;;;;;10.67;9.67;;;;;23.71;68.27;100653.19;146619;650;46017;-65
2023/06/18 08:08:48;;;;;;;;;11.33;11.00;;;;;23.39;70.42;100670.87;146621;591;46029;-65
2023/06/18 08:11:48;;;;;;;;;9.67;8.67;;;;;23.17;71.27;100675.31;146616;636;47012;-65
2023/06/18 08:15:06;;;;;;;;;11.00;9.67;;;;;22.97;71.01;100678.00;146619;576;46021;-67
2023/06/18 08:18:23;;;;;;;;;11.00;11.00;;;;;22.78;71.80;100688.53;146618;634;46012;-67
2023/06/18 08:21:15;;;;;;;;;11.33;9.33;;;;;22.69;72.55;100699.09;146621;570;46021;-65
2023/06/18 08:24:20;;;;;;;;;10.00;9.00;;;;;22.72;72.57;100714.94;146616;575;46016;-65
2023/06/18 08:27:17;;;;;;;;;8.00;8.00;;;;;22.82;71.77;100718.47;146621;634;46011;-66
2023/06/18 08:30:26;;;;;;;;;8.67;7.67;;;;;22.88;72.79;100721.13;146617;584;46016;-65
2023/06/18 08:33:24;;;;;;;;;5.67;5.67;;;;;22.91;71.80;100722.91;146621;564;47010;-66
2023/06/18 08:36:47;;;;;;;;;5.00;5.00;;;;;22.87;70.60;100727.31;146617;605;46017;-66
2023/06/18 08:39:44;;;;;;;;;1.67;1.67;;;;;22.82;71.05;100734.34;146623;659;46010;-65
2023/06/18 08:42:47;;;;;;;;;2.33;2.33;;;;;22.76;70.83;100743.16;146619;564;46013;-65
2023/06/18 08:45:46;;;;;;;;;2.00;2.00;;;;;22.73;71.05;100743.13;146624;601;46028;-66
2023/06/18 08:49:07;;;;;;;;;3.67;3.67;;;;;22.72;73.56;100754.59;146618;655;47012;-65
2023/06/18 08:52:10;;;;;;;;;6.33;4.00;;;;;22.82;73.40;100753.72;146621;600;46021;-65
2023/06/18 08:55:13;;;;;;;;;3.00;3.00;;;;;22.94;72.93;100752.03;146617;645;46037;-66
2023/06/18 08:58:28;;;;;;;;;9.00;9.00;;;;;23.06;73.44;100752.03;146623;591;46014;-65
2023/06/18 09:01:58;;;;;;;;;8.33;8.33;;;;;23.01;71.57;100759.94;146617;620;46016;-67
2023/06/18 09:04:54;;;;;;;;;9.33;9.33;;;;;22.97;72.12;100758.19;146623;611;46010;-66
2023/06/18 09:08:11;;;;;;;;;12.67;10.00;;;;;23.07;72.15;100756.44;146619;563;46016;-67
2023/06/18 09:11:33;;;;;;;;;8.75;7.50;;;;;20.72;70.37;100291.34;146621;684;47008;-66
2023/06/18 09:14:31;;;;;;;;;10.33;10.00;;;;;23.71;69.82;100747.62;146619;564;46016;-65
2023/06/18 09:17:49;;;;;;;;;10.00;10.00;;;;;23.89;68.31;100759.91;146621;628;46010;-66
2023/06/18 09:20:45;;;;;;;;;8.00;8.00;;;;;23.93;66.36;100753.72;146617;580;46017;-68
2023/06/18 09:23:39;;;;;;;;;11.33;10.00;;;;;23.86;67.06;100750.22;146623;607;46010;-67
2023/06/18 09:26:34;;;;;;;;;11.00;10.00;;;;;23.84;66.02;100751.09;146615;571;46016;-67
2023/06/18 09:29:43;;;;;;;;;9.67;9.67;;;;;23.83;67.53;100749.31;146621;593;46010;-66
2023/06/18 09:32:59;;;;;;;;;10.00;10.00;;;;;23.91;66.92;100748.41;146614;577;47014;-67
2023/06/18 09:36:19;;;;;;;;;8.67;8.67;;;;;22.87;65.11;100531.66;146622;588;47011;-67
2023/06/18 09:39:31;;;;;;;;;12.00;11.00;;;;;24.26;64.08;100749.16;146620;571;47026;-67
2023/06/18 09:42:35;;;;;;;;;11.33;11.00;;;;;24.44;65.38;100746.47;146620;576;46020;-67
2023/06/18 09:45:54;;;;;;;;;11.33;10.67;;;;;24.75;64.82;100747.16;146619;629;46912;-66
2023/06/18 09:48:55;;;;;;;;;10.00;10.00;;;;;24.97;63.71;100747.00;146617;564;46020;-67
2023/06/18 09:51:51;;;;;;;;;11.50;11.50;;;;;25.14;61.92;100744.25;146612;670;47012;-66
2023/06/18 09:55:00;;;;;;;;;13.33;13.33;;;;;25.32;60.52;100744.97;146622;626;46014;-67
2023/06/18 09:58:00;;;;;;;;;15.00;12.00;;;;;25.55;59.83;100739.47;146615;609;46033;-67
2023/06/18 10:01:19;;;;;;;;;13.67;11.67;;;;;24.20;61.35;100443.66;146622;584;46010;-66
2023/06/18 10:04:17;;;;;;;;;13.33;12.67;;;;;26.16;57.54;100739.69;146614;565;46913;-67
2023/06/18 10:07:24;;;;;;;;;11.50;11.50;;;;;26.25;56.92;100737.78;146621;577;46010;-67
2023/06/18 10:10:33;;;;;;;;;12.67;12.67;;;;;24.04;55.88;100365.19;146618;577;46012;-67
2023/06/18 10:13:32;;;;;;;;;13.00;12.67;;;;;26.10;55.75;100743.28;146618;618;47052;-67
2023/06/18 10:16:57;;;;;;;;;13.33;11.00;;;;;26.01;57.04;100748.72;146617;569;47012;-66
2023/06/18 10:20:24;;;;;;;;;12.00;12.00;;;;;26.03;57.14;100745.16;146617;572;47010;-68
2023/06/18 10:23:22;;;;;;;;;13.00;12.00;;;;;25.99;57.19;100734.59;146609;620;47911;-67
2023/06/18 10:26:22;;;;;;;;;9.75;9.75;;;;;25.94;54.16;100739.94;146619;566;46010;-67
2023/06/18 10:29:49;;;;;;;;;11.67;11.67;;;;;25.89;57.07;100740.88;146616;569;47014;-67
2023/06/18 10:32:50;;;;;;;;;9.25;9.25;;;;;25.89;54.75;100735.56;146621;608;47010;-67
2023/06/18 10:36:05;;;;;;;;;13.00;11.00;;;;;25.83;51.86;100736.53;146616;582;46016;-67
2023/06/18 10:39:02;;;;;;;;;12.75;12.00;;;;;25.78;54.39;100725.91;146620;564;46010;-67
2023/06/18 10:42:27;;;;;;;;;11.67;10.67;;;;;25.71;54.77;100732.22;146614;599;47014;-66
2023/06/18 10:45:26;;;;;;;;;12.33;10.33;;;;;25.64;54.34;100727.88;146621;573;46014;-67
2023/06/18 10:48:31;;;;;;;;;11.00;11.00;;;;;25.66;55.42;100734.03;146616;595;46017;-67
2023/06/18 10:51:28;;;;;;;;;12.33;10.33;;;;;25.67;54.32;100730.50;146620;570;46010;-66
2023/06/18 10:54:41;;;;;;;;;9.33;9.33;;;;;25.72;56.37;100738.41;146607;566;47014;-67
2023/06/18 10:57:41;;;;;;;;;10.67;9.33;;;;;25.76;55.09;100733.06;146623;564;46010;-66
2023/06/18 11:01:10;;;;;;;;;12.75;11.75;;;;;25.75;52.82;100738.34;146617;693;46012;-67
2023/06/18 11:04:38;;;;;;;;;11.00;11.00;;;;;25.71;55.22;100734.88;146616;701;46020;-66
2023/06/18 11:07:38;;;;;;;;;12.00;11.00;;;;;25.69;53.89;100738.44;146618;604;46016;-67
2023/06/18 11:10:47;;;;;;;;;11.67;10.00;;;;;25.67;56.22;100737.56;146618;587;47015;-66
2023/06/18 11:13:44;;;;;;;;;9.33;9.33;;;;;25.62;52.82;100737.63;146617;569;46025;-68
2023/06/18 11:17:12;;;;;;;;;9.00;8.00;;;;;25.53;56.17;100740.38;146621;599;47010;-67
2023/06/18 11:20:15;;;;;;;;;9.00;8.33;;;;;25.48;55.58;100724.50;146618;678;47031;-66
2023/06/18 11:23:10;;;;;;;;;9.67;9.67;;;;;25.47;54.38;100730.69;146618;599;46020;-67
2023/06/18 11:26:09;;;;;;;;;9.33;9.33;;;;;25.47;54.21;100728.03;146619;662;46012;-68
2023/06/18 11:29:11;;;;;;;;;9.67;9.67;;;;;25.49;54.71;100728.03;146620;597;46020;-66
2023/06/18 11:32:04;;;;;;;;;9.33;8.00;;;;;25.50;52.60;100727.12;146614;570;47016;-67
2023/06/18 11:35:17;;;;;;;;;8.33;8.33;;;;;25.51;55.85;100728.87;146620;575;46021;-67
2023/06/18 11:38:15;;;;;;;;;8.67;8.67;;;;;25.54;55.16;100723.53;146619;571;46016;-66
2023/06/18 11:41:26;;;;;;;;;9.00;8.33;;;;;25.87;55.08;100718.78;146618;593;46021;-66
2023/06/18 11:44:39;;;;;;;;;12.00;11.00;;;;;26.29;53.92;100720.00;146619;645;46016;-66
2023/06/18 11:47:37;;;;;;;;;9.25;9.00;;;;;26.01;52.28;100607.91;146617;599;47015;-67
2023/06/18 11:50:41;;;;;;;;;8.00;8.00;;;;;26.97;52.53;100708.41;146617;647;46016;-68
2023/06/18 11:53:34;;;;;;;;;13.00;11.67;;;;;27.15;47.72;100703.66;146622;646;47010;-67
2023/06/18 11:56:45;;;;;;;;;12.00;11.00;;;;;27.32;49.04;100707.81;146620;592;46016;-67
2023/06/18 11:59:50;;;;;;;;;10.00;8.67;;;;;27.46;50.00;100697.81;146620;586;46020;-68
2023/06/18 12:02:46;;;;;;;;;9.67;7.67;;;;;27.52;48.67;100681.69;146619;564;46013;-67
2023/06/18 12:05:51;;;;;;;;;10.00;10.00;;;;;27.59;50.73;100699.31;146622;564;46014;-68
2023/06/18 12:08:52;;;;;;;;;7.67;7.00;;;;;27.71;49.04;100692.00;146614;624;47012;-68
2023/06/18 12:12:32;;;;;;;;;9.00;9.00;;;;;26.94;52.78;100547.00;146620;565;46020;-67
2023/06/18 12:15:40;;;;;;;;;12.67;11.00;;;;;27.92;51.08;100686.28;146616;595;46914;-67
2023/06/18 12:18:50;;;;;;;;;10.00;10.00;;;;;26.84;52.71;100482.47;146619;632;47021;-68
2023/06/18 12:21:47;;;;;;;;;8.67;8.67;;;;;28.15;46.42;100692.88;146615;581;46016;-67
2023/06/18 12:24:40;;;;;;;;;10.00;9.00;;;;;28.27;48.08;100687.28;146620;593;47010;-67
2023/06/18 12:27:55;;;;;;;;;12.00;10.75;;;;;28.40;47.20;100686.12;146618;576;47017;-67
2023/06/18 12:30:53;;;;;;;;;9.67;9.67;;;;;28.51;47.11;100678.75;146619;574;46020;-67
2023/06/18 12:34:07;;;;;;;;;9.33;9.33;;;;;26.59;51.99;100324.28;146619;589;46013;-66
2023/06/18 12:37:16;;;;;;;;;12.00;10.00;;;;;28.79;47.46;100694.13;146621;599;46014;-66
2023/06/18 12:40:31;;;;;;;;;8.50;8.25;;;;;26.76;50.66;100315.94;146615;564;46013;-68
2023/06/18 12:43:36;;;;;;;;;8.67;8.67;;;;;28.80;44.78;100682.50;146622;588;46020;-68
2023/06/18 12:46:33;;;;;;;;;12.33;11.00;;;;;28.72;45.92;100680.06;146618;641;47012;-67
2023/06/18 12:49:42;;;;;;;;;9.67;8.33;;;;;28.69;46.68;100673.88;146622;564;46020;-67
2023/06/18 12:52:58;;;;;;;;;10.25;10.00;;;;;28.67;45.74;100675.72;146615;649;46016;-67
2023/06/18 12:56:28;;;;;;;;;11.00;9.67;;;;;26.39;50.37;100292.78;146620;598;46021;-68
2023/06/18 12:59:51;;;;;;;;;11.67;11.67;;;;;26.44;51.50;100299.72;146620;611;46913;-67
2023/06/18 13:02:57;;;;;;;;;9.33;9.33;;;;;28.64;44.92;100671.34;146622;597;46023;-67
2023/06/18 13:05:53;;;;;;;;;9.00;8.33;;;;;28.55;44.31;100675.09;146614;584;47016;-68
2023/06/18 13:08:52;;;;;;;;;12.33;11.67;;;;;28.44;48.61;100663.81;146623;570;47010;-68
2023/06/18 13:11:46;;;;;;;;;9.00;8.00;;;;;28.31;46.59;100670.31;146614;606;46016;-67
2023/06/18 13:14:38;;;;;;;;;9.33;8.33;;;;;28.18;46.36;100677.69;146620;702;46020;-67
2023/06/18 13:17:30;;;;;;;;;10.00;9.67;;;;;27.94;46.21;100667.56;146615;608;46017;-68
2023/06/18 13:20:24;;;;;;;;;10.00;9.67;;;;;27.81;45.92;100672.28;146623;569;46020;-67
2023/06/18 13:23:31;;;;;;;;;9.00;9.00;;;;;27.75;47.44;100675.03;146616;564;46017;-67
2023/06/18 13:26:29;;;;;;;;;8.67;8.67;;;;;27.54;46.86;100663.00;146620;607;46020;-67
2023/06/18 13:29:29;;;;;;;;;8.67;8.67;;;;;27.32;49.41;100662.56;146620;584;46012;-67
2023/06/18 13:32:30;;;;;;;;;9.33;8.67;;;;;27.12;47.31;100661.09;146617;592;46021;-67
2023/06/18 13:35:39;;;;;;;;;8.33;8.33;;;;;26.98;49.08;100668.47;146618;603;46016;-67
2023/06/18 13:38:47;;;;;;;;;9.33;7.00;;;;;27.10;49.97;100664.69;146621;591;47010;-66
2023/06/18 13:41:54;;;;;;;;;12.67;11.67;;;;;27.29;50.81;100671.50;146618;588;47025;-67
2023/06/18 13:45:01;;;;;;;;;;;;;;;;;;;;;
2023/06/18 13:47:54;;;;;;;;;10.00;9.00;;;;;27.50;47.27;100666.66;146611;693;46016;-67
2023/06/18 13:50:57;;;;;;;;;7.00;7.00;;;;;27.53;47.16;100663.94;146614;569;47020;-68
2023/06/18 13:53:52;;;;;;;;;11.00;10.00;;;;;27.54;46.56;100663.00;146618;565;46016;-67
2023/06/18 13:56:57;;;;;;;;;;;;;;;;;;;;;
2023/06/18 14:00:29;;;;;;;;;10.00;9.33;;;;;25.25;48.52;100268.25;146615;627;47014;-67
2023/06/18 14:03:37;;;;;;;;;7.00;7.00;;;;;27.51;45.78;100657.75;146621;639;46020;-67
2023/06/18 14:06:42;;;;;;;;;8.00;8.00;;;;;27.43;46.93;100659.69;146618;669;47012;-67
2023/06/18 14:09:38;;;;;;;;;8.00;8.00;;;;;27.37;47.06;100661.56;146621;611;47011;-68
2023/06/18 14:12:49;;;;;;;;;10.00;9.00;;;;;25.08;48.24;100265.88;146618;588;46915;-68
2023/06/18 14:15:54;;;;;;;;;11.33;10.67;;;;;25.18;46.42;100263.97;146622;610;46011;-66
2023/06/18 14:18:51;;;;;;;;;8.00;8.00;;;;;27.49;45.83;100660.47;146618;569;46915;-67
2023/06/18 15:28:24;;;;;;;;;5.00;5.00;;;;;26.30;52.51;100673.06;146627;597;45022;-75
2023/06/18 15:31:54;;;;;;;;;;;;;;;;;;;;;
2023/06/18 15:35:56;;;;;;;;;;;;;;;;;;;;;